Time;durP1;ratioP1;P1;durP2;ratioP2;P2;SDS_P1;SDS_P2;PMS_P1;PMS_P2;Temp;Humidity;BMP_temperature;BMP_pressure;BME280_temperature;BME280_humidity;BME280_pressure;Samples;Min_cycle;Max_cycle;Signal;HPM_P1;HPM_P2
2023/10/30 00:02:01;;;;;;;16.70;2.23;;;13.30;99.90;;;;;;7280371;19;20182;-91
2023/10/30 00:04:26;;;;;;;12.87;2.23;;;13.30;99.90;;;;;;7282068;19;20271;-91
2023/10/30 00:06:52;;;;;;;12.13;2.30;;;13.30;99.90;;;;;;7282297;19;20678;-92
2023/10/30 00:09:23;;;;;;;10.67;2.40;;;13.30;99.90;;;;;;7280924;19;20206;-91
2023/10/30 00:11:49;;;;;;;14.43;2.63;;;13.30;99.90;;;;;;7285723;19;20767;-91
2023/10/30 00:14:15;;;;;;;14.70;2.60;;;13.40;99.90;;;;;;7303262;19;20707;-91
2023/10/30 00:16:41;;;;;;;12.67;2.63;;;13.40;99.90;;;;;;7303817;19;20249;-91
2023/10/30 00:19:06;;;;;;;12.47;3.10;;;13.40;99.90;;;;;;7284923;19;20185;-89
2023/10/30 00:21:32;;;;;;;20.13;3.50;;;13.40;99.90;;;;;;7288092;19;20228;-89
2023/10/30 00:23:58;;;;;;;15.10;3.20;;;13.50;99.90;;;;;;7287190;19;20189;-90
2023/10/30 00:26:24;;;;;;;14.80;3.10;;;13.40;99.90;;;;;;7287216;19;20609;-90
2023/10/30 00:28:51;;;;;;;14.77;2.70;;;13.30;99.90;;;;;;7286904;19;20186;-88
2023/10/30 00:31:17;;;;;;;14.50;2.93;;;13.20;99.90;;;;;;7287554;19;20624;-90
2023/10/30 00:33:46;;;;;;;13.57;2.57;;;13.20;99.90;;;;;;7288877;19;20188;-90
2023/10/30 00:36:14;;;;;;;11.87;3.00;;;13.30;99.90;;;;;;7308409;19;20190;-90
2023/10/30 00:38:42;;;;;;;14.17;2.50;;;13.30;99.90;;;;;;7288147;19;20198;-89
2023/10/30 00:41:10;;;;;;;13.70;2.40;;;13.30;99.90;;;;;;7289092;19;20182;-90
2023/10/30 00:43:37;;;;;;;16.80;2.77;;;13.40;99.90;;;;;;7286236;19;20208;-90
2023/10/30 00:46:04;;;;;;;12.50;2.00;;;13.40;99.90;;;;;;7283338;19;20179;-90
2023/10/30 00:48:30;;;;;;;13.40;2.07;;;13.40;99.90;;;;;;7283908;19;20206;-89
2023/10/30 00:50:55;;;;;;;12.57;2.40;;;13.40;99.90;;;;;;7285900;19;20186;-89
2023/10/30 00:53:21;;;;;;;11.53;1.70;;;13.40;99.90;;;;;;7284799;19;20190;-88
2023/10/30 00:55:50;;;;;;;12.20;1.83;;;13.40;99.90;;;;;;7289986;19;20610;-89
2023/10/30 00:58:17;;;;;;;11.47;1.80;;;13.40;99.90;;;;;;7289152;19;20210;-88
2023/10/30 01:00:43;;;;;;;13.13;1.97;;;13.40;99.90;;;;;;7309533;19;20660;-90
2023/10/30 01:03:09;;;;;;;14.07;2.33;;;13.50;99.90;;;;;;7286447;19;20243;-90
2023/10/30 01:05:35;;;;;;;12.73;2.33;;;13.50;99.90;;;;;;7287561;19;20222;-89
2023/10/30 01:08:01;;;;;;;16.33;2.70;;;13.50;99.90;;;;;;7286211;19;20198;-89
2023/10/30 01:10:26;;;;;;;14.87;2.20;;;13.50;99.90;;;;;;7285405;19;20185;-89
2023/10/30 01:12:52;;;;;;;15.90;2.00;;;13.40;99.90;;;;;;7285168;19;20783;-90
2023/10/30 01:15:18;;;;;;;16.07;2.70;;;13.40;99.90;;;;;;7286157;19;20601;-89
2023/10/30 01:17:47;;;;;;;9.90;1.73;;;13.40;99.90;;;;;;7307890;19;20186;-90
2023/10/30 01:20:13;;;;;;;12.43;1.90;;;13.40;99.90;;;;;;7285425;19;20255;-90
2023/10/30 01:22:38;;;;;;;14.37;2.33;;;13.50;99.90;;;;;;7286778;19;20189;-90
2023/10/30 01:25:04;;;;;;;14.30;2.23;;;13.50;99.90;;;;;;7285433;19;20203;-89
2023/10/30 01:27:30;;;;;;;12.67;2.17;;;13.40;99.90;;;;;;7285409;19;20197;-89
2023/10/30 01:29:56;;;;;;;13.30;2.20;;;13.50;99.90;;;;;;7283070;19;20278;-90
2023/10/30 01:32:22;;;;;;;12.53;1.80;;;13.50;99.90;;;;;;7285949;19;20746;-89
2023/10/30 01:34:49;;;;;;;14.60;1.87;;;13.40;99.90;;;;;;7285215;19;20652;-91
2023/10/30 01:37:20;;;;;;;11.90;2.27;;;13.50;99.90;;;;;;7294371;19;20258;-89
2023/10/30 01:39:46;;;;;;;16.87;2.03;;;13.50;99.90;;;;;;7285521;19;20289;-89
2023/10/30 01:42:16;;;;;;;13.90;1.97;;;13.50;99.90;;;;;;7305050;19;20198;-90
2023/10/30 01:44:56;;;;;;;12.47;1.83;;;13.50;99.90;;;;;;7283493;19;20262;-89
2023/10/30 01:47:25;;;;;;;16.50;2.63;;;13.50;99.90;;;;;;7180893;19;2004407;-88
2023/10/30 01:49:57;;;;;;;15.23;2.13;;;13.50;99.90;;;;;;7284264;19;20178;-89
2023/10/30 01:52:26;;;;;;;15.77;1.90;;;13.60;99.90;;;;;;7284498;19;20193;-89
2023/10/30 01:54:54;;;;;;;15.13;2.60;;;13.50;99.90;;;;;;7284137;19;20194;-89
2023/10/30 01:57:21;;;;;;;13.47;1.80;;;13.50;99.90;;;;;;7284155;19;20231;-89
2023/10/30 01:59:50;;;;;;;10.37;1.60;;;13.50;99.90;;;;;;7284449;19;20196;-89
2023/10/30 02:02:21;;;;;;;15.30;1.97;;;13.50;99.90;;;;;;7289192;19;20183;-89
2023/10/30 02:04:50;;;;;;;14.10;2.03;;;13.40;99.90;;;;;;7285620;19;20222;-90
2023/10/30 02:07:16;;;;;;;9.73;1.70;;;13.30;99.90;;;;;;7291053;19;20182;-90
2023/10/30 02:09:42;;;;;;;16.47;2.50;;;13.30;99.90;;;;;;7306708;19;20222;-90
2023/10/30 02:12:11;;;;;;;16.57;2.30;;;13.30;99.90;;;;;;7285013;19;20202;-90
2023/10/30 02:14:36;;;;;;;12.87;1.90;;;13.30;99.90;;;;;;7269265;19;20192;-90
2023/10/30 02:17:02;;;;;;;12.93;2.00;;;13.30;99.90;;;;;;7282262;19;20543;-90
2023/10/30 02:19:28;;;;;;;10.63;1.83;;;13.30;99.90;;;;;;7283605;19;20189;-90
2023/10/30 02:21:55;;;;;;;12.53;2.20;;;13.40;99.90;;;;;;7283085;19;20261;-89
2023/10/30 02:24:22;;;;;;;18.10;2.10;;;13.30;99.90;;;;;;7281312;19;21448;-89
2023/10/30 02:26:50;;;;;;;15.10;2.33;;;13.30;99.90;;;;;;7284424;19;20612;-89
2023/10/30 02:29:16;;;;;;;15.43;2.13;;;13.40;99.90;;;;;;7296361;19;20181;-89
2023/10/30 02:31:43;;;;;;;15.13;2.33;;;13.40;99.90;;;;;;7305673;19;20646;-90
2023/10/30 02:34:10;;;;;;;11.83;2.60;;;13.40;99.90;;;;;;7281120;19;20179;-90
2023/10/30 02:36:36;;;;;;;16.27;2.43;;;13.30;99.90;;;;;;7283186;19;20184;-90
2023/10/30 02:39:07;;;;;;;12.70;2.03;;;13.30;99.90;;;;;;7282125;19;20210;-90
2023/10/30 02:41:33;;;;;;;16.97;2.33;;;13.30;99.90;;;;;;7282101;19;20189;-90
2023/10/30 02:43:59;;;;;;;15.23;1.80;;;13.30;99.90;;;;;;7285244;19;20204;-91
2023/10/30 02:46:25;;;;;;;13.83;1.97;;;13.30;99.90;;;;;;7285423;19;20200;-89
2023/10/30 02:48:53;;;;;;;12.70;1.90;;;13.20;99.90;;;;;;7284376;19;20183;-91
2023/10/30 02:51:19;;;;;;;15.53;1.90;;;13.20;99.90;;;;;;7282646;19;20177;-90
2023/10/30 02:53:45;;;;;;;15.33;1.90;;;13.20;99.90;;;;;;7296389;19;20362;-91
2023/10/30 02:56:11;;;;;;;19.67;2.37;;;13.20;99.90;;;;;;7300757;19;20194;-90
2023/10/30 02:58:37;;;;;;;16.33;1.87;;;13.30;99.90;;;;;;7281335;19;20186;-90
2023/10/30 03:01:03;;;;;;;12.37;1.83;;;13.20;99.90;;;;;;7283190;19;20178;-89
2023/10/30 03:03:29;;;;;;;16.03;2.40;;;13.20;99.90;;;;;;7283555;19;20193;-90
2023/10/30 03:05:55;;;;;;;15.10;1.90;;;13.20;99.90;;;;;;7282936;19;20177;-90
2023/10/30 03:08:21;;;;;;;15.13;1.90;;;13.20;99.90;;;;;;7281021;19;20771;-90
2023/10/30 03:10:47;;;;;;;11.10;1.90;;;13.10;99.90;;;;;;7280485;19;20189;-90
2023/10/30 03:13:13;;;;;;;15.97;2.10;;;13.20;99.90;;;;;;7306519;19;20335;-91
2023/10/30 03:15:40;;;;;;;12.50;2.00;;;13.10;99.90;;;;;;7281853;19;20756;-91
2023/10/30 03:18:08;;;;;;;17.23;2.10;;;13.10;99.90;;;;;;7282289;19;20180;-90
2023/10/30 03:20:34;;;;;;;15.27;1.80;;;13.10;99.90;;;;;;7282107;19;20185;-90
2023/10/30 03:23:00;;;;;;;19.77;2.50;;;13.10;99.90;;;;;;7281950;19;20557;-90
2023/10/30 03:25:25;;;;;;;13.63;1.90;;;13.20;99.90;;;;;;7281203;19;20190;-91
2023/10/30 03:27:51;;;;;;;14.50;1.90;;;13.10;99.90;;;;;;7281734;19;20532;-90
2023/10/30 03:30:17;;;;;;;15.30;1.90;;;13.20;99.90;;;;;;7281606;19;20230;-91
2023/10/30 03:32:43;;;;;;;16.40;1.93;;;13.10;99.90;;;;;;7304335;19;20186;-90
2023/10/30 03:35:09;;;;;;;13.57;1.90;;;13.00;99.90;;;;;;7281960;19;20190;-90
2023/10/30 03:37:34;;;;;;;15.43;2.17;;;13.00;99.90;;;;;;7282130;19;20198;-90
2023/10/30 03:40:01;;;;;;;15.43;2.27;;;13.00;99.90;;;;;;7281696;19;20197;-90
2023/10/30 03:42:27;;;;;;;13.50;1.80;;;13.00;99.90;;;;;;7284318;19;20189;-90
2023/10/30 03:44:52;;;;;;;12.97;1.77;;;13.00;99.90;;;;;;7280844;19;20188;-90
2023/10/30 03:47:21;;;;;;;12.90;2.00;;;13.00;99.90;;;;;;7281670;19;20216;-90
2023/10/30 03:49:47;;;;;;;12.53;1.90;;;13.00;99.90;;;;;;7280611;19;20762;-89
2023/10/30 03:52:13;;;;;;;13.70;1.80;;;13.00;99.90;;;;;;7302834;19;20799;-89
2023/10/30 03:54:38;;;;;;;16.73;2.03;;;12.90;99.90;;;;;;7281869;19;20187;-90
2023/10/30 03:57:08;;;;;;;14.90;2.17;;;12.90;99.90;;;;;;7282525;19;20195;-90
2023/10/30 03:59:34;;;;;;;14.10;2.00;;;12.80;99.90;;;;;;7281095;19;20825;-91
2023/10/30 04:02:00;;;;;;;21.93;2.50;;;12.80;99.90;;;;;;7280885;19;20197;-90
2023/10/30 04:04:26;;;;;;;16.50;2.00;;;12.80;99.90;;;;;;7281019;19;20652;-90
2023/10/30 04:06:54;;;;;;;18.30;2.00;;;12.80;99.90;;;;;;7281580;19;20178;-89
2023/10/30 04:09:20;;;;;;;12.23;2.57;;;12.80;99.90;;;;;;7280802;19;20203;-89
2023/10/30 04:11:46;;;;;;;14.30;1.97;;;12.80;99.90;;;;;;7289164;19;20193;-89
2023/10/30 04:14:13;;;;;;;15.37;1.90;;;12.80;99.90;;;;;;7304107;19;20302;-90
2023/10/30 04:16:39;;;;;;;12.73;1.80;;;12.80;99.90;;;;;;7281808;19;20688;-90
2023/10/30 04:19:05;;;;;;;15.63;2.10;;;12.70;99.90;;;;;;7280228;19;21693;-90
2023/10/30 04:21:30;;;;;;;11.97;2.30;;;12.60;99.90;;;;;;7271075;19;20210;-90
2023/10/30 04:23:57;;;;;;;12.73;2.00;;;12.60;99.90;;;;;;7277707;19;20197;-90
2023/10/30 04:26:23;;;;;;;17.33;2.90;;;12.60;99.90;;;;;;7279738;19;20205;-89
2023/10/30 04:28:49;;;;;;;14.83;2.13;;;12.70;99.90;;;;;;7280508;19;20193;-89
2023/10/30 04:31:15;;;;;;;16.00;2.43;;;12.60;99.90;;;;;;7302172;19;20276;-92
2023/10/30 04:33:41;;;;;;;17.33;2.30;;;12.50;99.90;;;;;;7291214;19;20188;-88
2023/10/30 04:36:07;;;;;;;16.53;2.23;;;12.50;99.90;;;;;;7282819;19;20186;-90
2023/10/30 04:38:33;;;;;;;17.90;2.30;;;12.50;99.90;;;;;;7280063;19;20205;-89
2023/10/30 04:41:04;;;;;;;13.83;2.13;;;12.50;99.90;;;;;;7278924;19;20213;-90
2023/10/30 04:43:34;;;;;;;16.53;1.80;;;12.50;99.90;;;;;;7278814;19;20560;-90
2023/10/30 04:46:00;;;;;;;14.60;2.50;;;12.50;99.90;;;;;;7279877;19;20194;-90
2023/10/30 04:48:25;;;;;;;14.00;2.07;;;12.50;99.90;;;;;;7278734;19;20219;-90
2023/10/30 04:50:52;;;;;;;18.20;2.20;;;12.40;99.90;;;;;;7277491;19;20661;-90
2023/10/30 04:53:20;;;;;;;15.47;2.00;;;12.50;99.90;;;;;;7276828;19;20265;-89
2023/10/30 04:55:49;;;;;;;11.13;2.00;;;12.50;99.90;;;;;;7293200;19;20253;-89
2023/10/30 04:58:15;;;;;;;16.33;1.80;;;12.50;99.90;;;;;;7306173;19;20653;-91
2023/10/30 05:00:42;;;;;;;16.00;2.23;;;12.40;99.90;;;;;;7294999;19;20192;-89
2023/10/30 05:03:11;;;;;;;14.40;1.97;;;12.50;99.90;;;;;;7286731;19;20201;-90
2023/10/30 05:05:37;;;;;;;17.03;2.00;;;12.40;99.90;;;;;;7285265;19;20201;-90
2023/10/30 05:08:04;;;;;;;20.03;2.37;;;12.40;99.90;;;;;;7285476;19;20688;-90
2023/10/30 05:10:30;;;;;;;17.10;2.13;;;12.30;99.90;;;;;;7281894;19;20224;-90
2023/10/30 05:12:56;;;;;;;19.87;2.37;;;12.20;99.90;;;;;;7285837;19;20564;-90
2023/10/30 05:15:22;;;;;;;12.87;2.07;;;12.20;99.90;;;;;;7284647;19;20676;-91
2023/10/30 05:17:47;;;;;;;19.93;2.17;;;12.20;99.90;;;;;;7283462;19;20305;-91
2023/10/30 05:20:13;;;;;;;10.87;2.00;;;12.20;99.90;;;;;;7305857;19;20248;-89
2023/10/30 05:22:41;;;;;;;12.90;2.00;;;12.20;99.90;;;;;;7283762;19;20725;-90
2023/10/30 05:25:10;;;;;;;17.27;2.17;;;12.10;99.90;;;;;;7283217;19;20188;-90
2023/10/30 05:27:36;;;;;;;15.30;2.20;;;12.20;99.90;;;;;;7283804;19;20198;-91
2023/10/30 05:30:02;;;;;;;15.43;2.17;;;12.20;99.90;;;;;;7283432;19;20206;-90
2023/10/30 05:32:28;;;;;;;14.83;1.80;;;12.10;99.90;;;;;;7285155;19;20196;-90
2023/10/30 05:34:54;;;;;;;15.13;2.20;;;12.10;99.90;;;;;;7282621;19;20733;-90
2023/10/30 05:37:20;;;;;;;17.90;2.47;;;12.10;99.90;;;;;;7284360;19;20214;-91
2023/10/30 05:39:49;;;;;;;17.47;2.27;;;12.10;99.90;;;;;;7284308;19;20186;-91
2023/10/30 05:42:15;;;;;;;14.97;2.10;;;12.10;99.90;;;;;;7303003;19;20197;-90
2023/10/30 05:44:41;;;;;;;14.93;2.00;;;12.10;99.90;;;;;;7294745;19;20214;-90
2023/10/30 05:47:07;;;;;;;14.23;1.97;;;12.20;99.90;;;;;;7284126;19;20201;-91
2023/10/30 05:49:33;;;;;;;16.10;2.30;;;12.20;99.90;;;;;;7282872;19;20188;-91
2023/10/30 05:51:59;;;;;;;12.83;2.27;;;12.10;99.90;;;;;;7282634;19;20201;-90
2023/10/30 05:54:25;;;;;;;16.07;2.33;;;12.10;99.90;;;;;;7284260;19;20185;-91
2023/10/30 05:56:53;;;;;;;17.57;2.90;;;12.10;99.90;;;;;;7284056;19;20181;-90
2023/10/30 05:59:19;;;;;;;17.67;2.23;;;11.90;99.90;;;;;;7283202;19;20192;-90
2023/10/30 06:01:47;;;;;;;15.70;2.00;;;11.90;99.90;;;;;;7306300;19;20193;-90
2023/10/30 06:04:13;;;;;;;20.07;2.20;;;11.90;99.90;;;;;;7282652;19;20301;-90
2023/10/30 06:06:40;;;;;;;18.77;2.17;;;11.80;99.90;;;;;;7286005;19;20189;-91
2023/10/30 06:09:06;;;;;;;15.47;2.23;;;11.80;99.90;;;;;;7282327;19;20220;-91
2023/10/30 06:11:32;;;;;;;17.47;2.60;;;11.80;99.90;;;;;;7282754;19;20225;-89
2023/10/30 06:13:58;;;;;;;13.30;2.30;;;11.80;99.90;;;;;;7284587;19;20197;-90
2023/10/30 06:16:24;;;;;;;16.27;2.00;;;11.80;99.90;;;;;;7283806;19;20248;-90
2023/10/30 06:18:49;;;;;;;15.70;2.40;;;11.80;99.90;;;;;;7282919;19;20264;-89
2023/10/30 06:21:16;;;;;;;14.37;2.13;;;11.80;99.90;;;;;;7305906;19;20621;-90
2023/10/30 06:23:42;;;;;;;18.43;2.43;;;11.80;99.90;;;;;;7305787;19;20189;-88
2023/10/30 06:26:09;;;;;;;17.00;2.30;;;11.90;99.90;;;;;;7283670;19;20192;-90
2023/10/30 06:28:37;;;;;;;14.67;2.17;;;11.90;99.90;;;;;;7283667;19;20216;-90
2023/10/30 06:31:04;;;;;;;17.47;2.60;;;11.80;99.90;;;;;;7284118;19;20234;-90
2023/10/30 06:33:33;;;;;;;17.93;2.20;;;11.90;99.90;;;;;;7282016;19;20197;-91
2023/10/30 06:36:00;;;;;;;19.03;2.40;;;11.80;99.90;;;;;;7283171;19;20231;-91
2023/10/30 06:38:29;;;;;;;17.23;2.60;;;11.80;99.90;;;;;;7281830;19;20228;-90
2023/10/30 06:40:55;;;;;;;19.90;2.30;;;12.00;99.90;;;;;;7281385;19;20204;-91
2023/10/30 06:43:21;;;;;;;15.33;2.20;;;12.10;99.90;;;;;;7282449;19;20193;-91
2023/10/30 06:45:57;;;;;;;14.43;2.07;;;12.00;99.90;;;;;;7285309;19;20672;-90
2023/10/30 06:48:23;;;;;;;16.27;2.23;;;12.10;99.90;;;;;;7283156;19;20196;-90
2023/10/30 06:50:52;;;;;;;15.17;2.23;;;12.10;99.90;;;;;;7281263;19;20196;-90
2023/10/30 06:53:17;;;;;;;20.23;2.80;;;12.20;99.90;;;;;;7282078;19;20181;-89
2023/10/30 06:55:43;;;;;;;13.13;1.90;;;12.30;99.90;;;;;;7303217;19;20193;-89
2023/10/30 06:58:09;;;;;;;16.30;2.10;;;12.40;99.90;;;;;;7282226;19;20189;-89
2023/10/30 07:00:35;;;;;;;21.23;2.60;;;12.50;99.90;;;;;;7281327;19;20656;-90
2023/10/30 07:03:01;;;;;;;14.10;2.60;;;12.60;99.90;;;;;;7282538;19;20196;-90
2023/10/30 07:05:27;;;;;;;10.00;2.00;;;12.70;99.90;;;;;;7281867;19;20208;-90
2023/10/30 07:07:54;;;;;;;15.43;2.57;;;12.80;99.90;;;;;;7282074;19;20218;-90
2023/10/30 07:10:19;;;;;;;17.50;2.20;;;12.90;99.90;;;;;;7282036;19;20214;-90
2023/10/30 07:12:45;;;;;;;14.57;2.20;;;13.00;99.90;;;;;;7304984;19;20253;-90
2023/10/30 07:15:11;;;;;;;15.57;2.57;;;13.10;99.90;;;;;;7293959;19;20205;-90
2023/10/30 07:17:37;;;;;;;18.43;2.37;;;13.20;99.90;;;;;;7282041;19;20183;-90
2023/10/30 07:20:03;;;;;;;15.00;2.60;;;13.40;99.90;;;;;;7288186;19;20209;-89
2023/10/30 07:22:30;;;;;;;13.93;2.43;;;13.30;99.90;;;;;;7281690;19;20189;-90
2023/10/30 07:24:59;;;;;;;13.07;2.50;;;13.20;99.90;;;;;;7282350;19;20221;-90
2023/10/30 07:27:24;;;;;;;16.63;2.10;;;13.20;99.90;;;;;;7282024;19;20190;-88
2023/10/30 07:29:51;;;;;;;17.57;2.70;;;13.30;99.90;;;;;;7282037;19;20193;-90
2023/10/30 07:32:18;;;;;;;11.60;2.13;;;13.40;99.90;;;;;;7283110;19;20185;-90
2023/10/30 07:34:44;;;;;;;10.90;1.87;;;13.40;99.90;;;;;;7302073;19;20259;-90
2023/10/30 07:37:10;;;;;;;14.43;3.10;;;13.40;99.90;;;;;;7281075;19;20198;-90
2023/10/30 07:39:36;;;;;;;17.33;2.97;;;13.50;99.90;;;;;;7281413;19;20206;-90
2023/10/30 07:42:04;;;;;;;15.67;1.87;;;13.50;99.90;;;;;;7281625;19;20223;-89
2023/10/30 07:44:31;;;;;;;15.63;2.40;;;13.50;99.90;;;;;;7281265;19;20202;-90
2023/10/30 07:46:57;;;;;;;13.87;1.87;;;13.70;99.90;;;;;;7281901;19;20199;-90
2023/10/30 07:49:23;;;;;;;11.73;2.30;;;13.70;99.90;;;;;;7280968;19;20258;-90
2023/10/30 07:51:54;;;;;;;10.60;2.00;;;13.80;99.90;;;;;;7279747;19;20662;-89
2023/10/30 07:54:20;;;;;;;11.43;2.10;;;13.90;99.90;;;;;;7280612;19;20190;-90
2023/10/30 07:56:46;;;;;;;12.43;2.10;;;14.10;99.90;;;;;;7292418;19;20672;-89
2023/10/30 07:59:12;;;;;;;15.63;2.27;;;14.20;99.90;;;;;;7299578;19;20207;-90
2023/10/30 08:01:39;;;;;;;9.10;2.10;;;14.30;99.90;;;;;;7282520;19;20187;-90
2023/10/30 08:04:10;;;;;;;15.40;2.40;;;14.30;99.90;;;;;;7279964;19;20202;-90
2023/10/30 08:06:39;;;;;;;12.70;1.80;;;14.20;99.90;;;;;;7282062;19;20224;-90
2023/10/30 08:09:05;;;;;;;13.50;2.23;;;14.30;99.90;;;;;;7284519;19;20196;-91
2023/10/30 08:11:32;;;;;;;14.57;1.87;;;14.30;99.90;;;;;;7282961;19;20207;-90
2023/10/30 08:13:58;;;;;;;11.90;2.07;;;14.30;99.90;;;;;;7281785;19;20194;-90
2023/10/30 08:16:23;;;;;;;16.43;2.73;;;14.40;99.90;;;;;;7281295;19;20641;-90
2023/10/30 08:18:49;;;;;;;11.23;2.20;;;14.40;99.90;;;;;;7279744;19;20187;-90
2023/10/30 08:21:15;;;;;;;9.93;1.70;;;14.40;99.90;;;;;;7302605;19;20191;-90
2023/10/30 08:23:43;;;;;;;12.93;2.47;;;14.50;99.90;;;;;;7281584;19;20198;-90
2023/10/30 08:26:08;;;;;;;10.80;1.70;;;14.50;99.90;;;;;;7280428;19;20796;-91
2023/10/30 08:28:35;;;;;;;17.43;2.37;;;14.50;99.90;;;;;;7280557;19;20191;-91
2023/10/30 08:31:01;;;;;;;10.63;1.73;;;14.50;99.90;;;;;;7282996;19;20199;-90
2023/10/30 08:33:27;;;;;;;15.97;2.20;;;14.40;99.90;;;;;;7287094;19;20214;-90
2023/10/30 08:35:53;;;;;;;8.93;1.93;;;14.10;99.90;;;;;;7288021;19;20276;-90
2023/10/30 08:38:22;;;;;;;14.73;2.30;;;14.30;99.90;;;;;;7289487;19;20199;-90
2023/10/30 08:40:47;;;;;;;12.07;2.13;;;14.30;99.90;;;;;;7289147;19;20201;-89
2023/10/30 08:43:13;;;;;;;12.83;2.00;;;14.50;99.90;;;;;;7308440;19;20195;-90
2023/10/30 08:45:42;;;;;;;13.17;2.23;;;14.60;99.90;;;;;;7286619;19;20225;-90
2023/10/30 08:48:14;;;;;;;12.80;2.00;;;14.70;99.90;;;;;;7287412;19;20205;-90
2023/10/30 08:50:41;;;;;;;13.73;2.67;;;14.70;99.90;;;;;;7285906;19;20199;-91
2023/10/30 08:53:07;;;;;;;10.30;2.13;;;14.70;99.90;;;;;;7286638;19;20215;-91
2023/10/30 08:55:32;;;;;;;13.47;2.40;;;14.70;99.90;;;;;;7288114;19;20210;-90
2023/10/30 08:57:58;;;;;;;10.93;2.13;;;14.70;99.90;;;;;;7287268;19;20185;-90
2023/10/30 09:00:24;;;;;;;10.90;1.80;;;14.70;99.90;;;;;;7286089;19;20193;-90
2023/10/30 09:02:50;;;;;;;10.03;2.20;;;14.80;99.90;;;;;;7287375;19;20188;-90
2023/10/30 09:05:15;;;;;;;11.87;2.53;;;14.80;99.90;;;;;;7308214;19;20690;-90
2023/10/30 09:07:43;;;;;;;9.10;1.90;;;14.60;99.90;;;;;;7288374;19;20181;-90
2023/10/30 09:10:09;;;;;;;9.80;2.10;;;14.60;99.90;;;;;;7287571;19;20216;-91
2023/10/30 09:12:35;;;;;;;13.83;3.87;;;14.60;99.90;;;;;;7286530;19;20199;-90
2023/10/30 09:15:00;;;;;;;15.73;3.53;;;14.70;99.90;;;;;;7286792;19;20207;-91
2023/10/30 09:17:26;;;;;;;12.90;2.40;;;14.70;99.90;;;;;;7286057;19;20650;-91
2023/10/30 09:19:52;;;;;;;11.67;2.23;;;14.80;99.90;;;;;;7282965;19;20540;-90
2023/10/30 09:22:18;;;;;;;10.53;1.70;;;14.70;99.90;;;;;;7287961;19;20191;-90
2023/10/30 09:24:44;;;;;;;12.13;2.90;;;14.60;99.90;;;;;;7309107;19;20194;-91
2023/10/30 09:27:10;;;;;;;10.20;2.13;;;14.60;99.90;;;;;;7284560;19;20184;-90
2023/10/30 09:29:36;;;;;;;10.57;2.90;;;14.70;99.90;;;;;;7285549;19;20256;-90
2023/10/30 09:32:03;;;;;;;8.47;2.57;;;14.60;99.90;;;;;;7286377;19;20189;-90
2023/10/30 09:34:30;;;;;;;10.47;2.90;;;14.60;99.90;;;;;;7285007;19;20196;-90
2023/10/30 09:36:56;;;;;;;13.13;2.90;;;14.50;99.90;;;;;;7286300;19;20380;-90
2023/10/30 09:39:22;;;;;;;11.97;3.60;;;14.50;99.90;;;;;;7284914;19;20730;-91
2023/10/30 09:41:52;;;;;;;11.00;2.93;;;14.40;99.90;;;;;;7284953;19;20181;-90
2023/10/30 09:44:18;;;;;;;10.33;2.67;;;14.50;99.90;;;;;;7294971;19;20250;-91
2023/10/30 09:46:46;;;;;;;9.83;2.50;;;14.30;99.90;;;;;;7308272;19;20650;-90
2023/10/30 09:49:13;;;;;;;11.53;2.97;;;14.20;99.90;;;;;;7286524;19;20288;-91
2023/10/30 09:51:42;;;;;;;10.87;2.17;;;14.20;99.90;;;;;;7288695;19;20186;-91
2023/10/30 09:54:09;;;;;;;8.43;2.10;;;14.00;99.90;;;;;;7287918;19;20184;-89
2023/10/30 09:56:37;;;;;;;7.83;2.17;;;14.00;99.90;;;;;;7290064;19;20202;-91
2023/10/30 09:59:06;;;;;;;9.93;2.20;;;14.00;99.90;;;;;;7300341;19;20229;-90
2023/10/30 10:01:32;;;;;;;12.27;2.70;;;14.00;99.90;;;;;;7290803;19;20267;-90
2023/10/30 10:03:58;;;;;;;8.77;2.30;;;14.10;99.90;;;;;;7284308;19;20195;-92
2023/10/30 10:06:24;;;;;;;10.57;2.37;;;14.30;99.90;;;;;;7286479;19;20196;-91
2023/10/30 10:08:50;;;;;;;6.03;1.90;;;14.40;99.90;;;;;;7287636;19;20649;-91
2023/10/30 10:11:20;;;;;;;9.70;2.20;;;14.60;99.90;;;;;;7310960;19;20542;-91
2023/10/30 10:13:48;;;;;;;7.27;1.93;;;14.60;99.90;;;;;;7284193;19;20187;-90
2023/10/30 10:16:17;;;;;;;14.63;2.53;;;14.60;99.90;;;;;;7309988;19;20196;-92
2023/10/30 10:18:43;;;;;;;12.43;2.30;;;14.50;99.90;;;;;;7288430;19;20195;-91
2023/10/30 10:21:09;;;;;;;6.43;1.97;;;14.50;99.90;;;;;;7286392;19;20692;-91
2023/10/30 10:23:36;;;;;;;10.63;2.57;;;14.40;99.90;;;;;;7287524;19;20190;-91
2023/10/30 10:26:04;;;;;;;11.90;2.37;;;14.40;99.90;;;;;;7288304;19;20324;-90
2023/10/30 10:28:31;;;;;;;10.77;1.93;;;14.40;99.90;;;;;;7286456;19;20220;-90
2023/10/30 10:30:58;;;;;;;6.87;1.50;;;14.40;99.90;;;;;;7287313;19;20189;-91
2023/10/30 10:33:32;;;;;;;6.20;1.67;;;14.30;99.90;;;;;;7288068;19;20199;-91
2023/10/30 10:36:01;;;;;;;14.50;2.00;;;14.30;99.90;;;;;;7288813;19;20199;-90
2023/10/30 10:38:27;;;;;;;6.67;1.83;;;14.30;99.90;;;;;;7288058;19;20193;-90
2023/10/30 10:40:55;;;;;;;9.90;2.10;;;14.40;99.90;;;;;;7286684;19;20290;-90
2023/10/30 10:43:21;;;;;;;9.97;2.33;;;14.60;99.90;;;;;;7282715;19;20244;-90
2023/10/30 10:45:49;;;;;;;11.47;2.57;;;14.70;99.90;;;;;;7294853;19;20195;-90
2023/10/30 10:48:15;;;;;;;12.07;2.87;;;14.70;99.90;;;;;;7306293;19;20188;-90
2023/10/30 10:50:42;;;;;;;9.47;2.87;;;14.80;99.90;;;;;;7287448;19;20196;-91
2023/10/30 10:53:10;;;;;;;9.87;2.50;;;14.80;99.90;;;;;;7283465;19;20189;-91
2023/10/30 10:55:43;;;;;;;11.27;3.50;;;14.70;99.90;;;;;;7282474;19;20655;-90
2023/10/30 10:58:17;;;;;;;11.30;2.80;;;14.70;99.90;;;;;;7283744;19;20201;-90
2023/10/30 11:00:52;;;;;;;12.43;3.10;;;14.60;99.90;;;;;;7283689;19;20190;-89
2023/10/30 11:03:21;;;;;;;8.57;2.60;;;14.60;99.90;;;;;;7260988;19;20190;-90
2023/10/30 11:05:50;;;;;;;9.40;2.47;;;14.50;99.90;;;;;;7302953;19;20188;-90
2023/10/30 11:08:44;;;;;;;11.43;2.53;;;14.50;99.90;;;;;;7303166;19;21015;-91
2023/10/30 11:11:23;;;;;;;9.47;2.83;;;14.50;99.90;;;;;;7282126;19;20196;-91
2023/10/30 11:13:55;;;;;;;10.67;2.97;;;14.70;99.90;;;;;;7260896;19;20203;-91
2023/10/30 11:16:25;;;;;;;10.10;2.53;;;14.80;99.90;;;;;;7282283;19;20187;-91
2023/10/30 11:18:54;;;;;;;10.97;3.87;;;14.90;99.90;;;;;;7284365;19;20281;-91
2023/10/30 11:21:25;;;;;;;12.37;3.33;;;14.90;99.90;;;;;;7283511;19;20694;-90
2023/10/30 11:23:56;;;;;;;9.20;2.50;;;15.00;99.90;;;;;;7283740;19;20193;-91
2023/10/30 11:26:36;;;;;;;8.73;3.30;;;15.00;99.90;;;;;;7282955;19;20225;-91
2023/10/30 11:29:04;;;;;;;6.73;2.53;;;15.20;99.90;;;;;;7281096;19;20192;-91
2023/10/30 11:31:34;;;;;;;6.87;2.30;;;15.20;99.90;;;;;;7282260;19;20536;-91
2023/10/30 11:34:18;;;;;;;8.37;1.90;;;15.20;99.90;;;;;;7283278;19;20192;-90
2023/10/30 11:36:47;;;;;;;5.07;1.70;;;15.20;99.90;;;;;;7284927;19;20756;-91
2023/10/30 11:39:20;;;;;;;5.57;1.50;;;15.20;99.90;;;;;;7282812;19;20185;-90
2023/10/30 11:41:50;;;;;;;4.60;1.50;;;15.20;99.90;;;;;;7283699;19;20190;-91
2023/10/30 11:44:17;;;;;;;5.50;1.47;;;15.20;99.90;;;;;;7285523;19;20661;-89
2023/10/30 11:46:50;;;;;;;5.03;2.10;;;15.10;99.90;;;;;;7296834;19;20216;-88
2023/10/30 11:49:18;;;;;;;7.27;1.60;;;15.10;99.90;;;;;;7294889;19;20192;-89
2023/10/30 11:51:50;;;;;;;4.93;1.57;;;15.00;99.90;;;;;;7284470;19;20174;-89
2023/10/30 11:54:32;;;;;;;6.23;1.70;;;15.00;99.90;;;;;;7283912;19;20299;-90
2023/10/30 11:57:00;;;;;;;8.37;1.87;;;15.10;99.90;;;;;;7183319;19;2004498;-90
2023/10/30 11:59:27;;;;;;;6.33;1.50;;;15.20;99.90;;;;;;7283430;19;20221;-90
2023/10/30 12:01:56;;;;;;;5.77;1.70;;;15.20;99.90;;;;;;7280172;19;20192;-90
2023/10/30 12:04:23;;;;;;;7.47;1.80;;;15.30;99.90;;;;;;7282756;19;20181;-90
2023/10/30 12:06:49;;;;;;;8.50;5.07;;;15.40;99.90;;;;;;7284191;19;20191;-91
2023/10/30 12:09:16;;;;;;;6.73;4.13;;;15.30;99.90;;;;;;7310958;19;20211;-90
2023/10/30 12:11:43;;;;;;;5.00;1.70;;;15.40;99.90;;;;;;7290771;19;20207;-90
2023/10/30 12:14:10;;;;;;;5.97;1.93;;;15.20;99.90;;;;;;7288403;19;20205;-91
2023/10/30 12:16:48;;;;;;;8.13;2.10;;;15.10;99.90;;;;;;7288625;19;20216;-90
2023/10/30 12:19:15;;;;;;;4.57;1.57;;;14.90;99.90;;;;;;7287941;19;20195;-90
2023/10/30 12:21:42;;;;;;;7.47;1.77;;;14.70;99.90;;;;;;7287393;19;20318;-89
2023/10/30 12:24:08;;;;;;;6.70;2.03;;;14.80;99.90;;;;;;7286970;19;20212;-90
2023/10/30 12:26:41;;;;;;;7.13;1.97;;;14.80;99.90;;;;;;7289253;19;20696;-89
2023/10/30 12:29:07;;;;;;;8.83;2.33;;;14.80;99.90;;;;;;7286774;19;20200;-90
2023/10/30 12:31:35;;;;;;;7.57;2.20;;;14.60;99.90;;;;;;7287888;19;20192;-90
2023/10/30 12:34:22;;;;;;;7.83;2.43;;;14.60;99.90;;;;;;7287373;19;20199;-91
2023/10/30 12:36:48;;;;;;;9.97;2.33;;;14.60;99.90;;;;;;7275336;19;20309;-90
2023/10/30 12:39:21;;;;;;;8.77;2.20;;;14.70;99.90;;;;;;7308487;19;20191;-91